Time;durP1;ratioP1;P1;durP2;ratioP2;P2;SDS_P1;SDS_P2;PMS_P1;PMS_P2;Temp;Humidity;BMP_temperature;BMP_pressure;BME280_temperature;BME280_humidity;BME280_pressure;Samples;Min_cycle;Max_cycle;Signal;HPM_P1;HPM_P2
2022/05/08 00:01:55;;;;;;;9.75;4.50;;;;;;;14.49;66.68;102656.38;5033684;28;20393;-64
2022/05/08 00:04:20;;;;;;;10.90;4.55;;;;;;;14.45;67.01;102645.84;5032793;28;20021;-64
2022/05/08 00:06:45;;;;;;;8.93;4.35;;;;;;;14.42;67.30;102654.34;5033890;28;20112;-64
2022/05/08 00:09:11;;;;;;;8.60;4.50;;;;;;;14.39;67.39;102659.41;5034524;28;21878;-64
2022/05/08 00:11:36;;;;;;;10.98;4.70;;;;;;;14.40;67.44;102648.22;5028675;28;20607;-64
2022/05/08 00:14:02;;;;;;;11.40;4.78;;;;;;;14.37;67.50;102660.16;5033104;28;20032;-64
2022/05/08 00:16:27;;;;;;;9.98;4.75;;;;;;;14.30;67.85;102651.25;5035295;28;20043;-63
2022/05/08 00:18:53;;;;;;;7.35;4.30;;;;;;;14.30;67.63;102652.97;5033116;28;20110;-64
2022/05/08 00:21:19;;;;;;;11.55;5.30;;;;;;;14.28;67.73;102657.19;5032706;28;20072;-64
2022/05/08 00:23:44;;;;;;;9.18;4.63;;;;;;;14.18;68.08;102651.63;5034218;28;20033;-63
2022/05/08 00:26:09;;;;;;;10.40;4.68;;;;;;;14.17;68.25;102657.63;5034590;28;20749;-64
2022/05/08 00:28:40;;;;;;;11.68;4.97;;;;;;;14.14;68.66;102666.97;5037701;28;20045;-64
2022/05/08 00:31:10;;;;;;;9.40;4.90;;;;;;;14.17;68.71;102662.78;5028863;28;20707;-63
2022/05/08 00:33:35;;;;;;;;;;;;;;;14.34;67.64;102655.75;5031213;28;20033;-64
2022/05/08 00:36:01;;;;;;;10.10;5.22;;;;;;;14.18;68.53;102658.50;5031922;28;19929;-64
2022/05/08 00:38:26;;;;;;;10.13;5.30;;;;;;;14.14;68.63;102654.03;5033049;28;20450;-63
2022/05/08 00:40:51;;;;;;;9.05;5.10;;;;;;;14.06;68.95;102661.47;5032156;28;20072;-64
2022/05/08 00:43:34;;;;;;;10.73;5.85;;;;;;;14.00;69.05;102662.91;5033457;28;20036;-64
2022/05/08 00:46:01;;;;;;;11.75;5.35;;;;;;;13.95;69.40;102658.44;5032783;28;20151;-64
2022/05/08 00:48:27;;;;;;;14.20;5.97;;;;;;;13.92;69.36;102665.16;5034912;28;20029;-64
2022/05/08 00:50:52;;;;;;;10.85;5.50;;;;;;;13.92;69.46;102663.47;5030272;28;20048;-64
2022/05/08 00:53:19;;;;;;;10.70;6.32;;;;;;;13.89;69.15;102654.69;5034778;28;20037;-64
2022/05/08 00:55:45;;;;;;;11.75;6.00;;;;;;;13.89;68.50;102665.94;5027784;28;20064;-63
2022/05/08 00:58:11;;;;;;;11.38;5.78;;;;;;;13.84;68.20;102658.78;5033026;28;20035;-64
2022/05/08 01:00:37;;;;;;;11.02;6.00;;;;;;;13.86;68.18;102668.38;5034411;28;20021;-64
2022/05/08 01:03:03;;;;;;;10.00;6.10;;;;;;;13.82;68.43;102666.47;5033484;28;20535;-64
2022/05/08 01:05:29;;;;;;;12.73;6.30;;;;;;;13.78;68.45;102669.75;5028642;28;20087;-64
2022/05/08 01:07:55;;;;;;;9.85;6.07;;;;;;;13.76;68.32;102667.91;5032088;28;20073;-63
2022/05/08 01:10:20;;;;;;;12.32;5.90;;;;;;;13.74;68.50;102670.44;5037283;28;20069;-64
2022/05/08 01:12:46;;;;;;;12.98;6.20;;;;;;;13.77;68.07;102669.66;5034362;28;20040;-64
2022/05/08 01:15:12;;;;;;;12.90;5.55;;;;;;;13.75;68.09;102677.34;5033151;28;20033;-63
2022/05/08 01:17:37;;;;;;;10.38;6.10;;;;;;;13.72;68.33;102671.19;5031427;28;20036;-64
2022/05/08 01:20:03;;;;;;;11.30;5.97;;;;;;;13.63;68.12;102674.22;5031729;28;20129;-63
2022/05/08 01:22:28;;;;;;;11.00;6.10;;;;;;;13.61;67.96;102668.13;5032540;28;20071;-64
2022/05/08 01:24:54;;;;;;;9.30;6.50;;;;;;;13.51;68.28;102668.53;5030554;28;20116;-64
2022/05/08 01:27:19;;;;;;;10.15;6.55;;;;;;;13.40;68.54;102663.75;5028560;28;22025;-63
2022/05/08 01:29:44;;;;;;;13.07;6.50;;;;;;;13.35;69.00;102675.59;5033623;28;20044;-63
2022/05/08 01:32:10;;;;;;;11.30;6.20;;;;;;;13.39;69.21;102676.59;5030880;28;20033;-63
2022/05/08 01:34:35;;;;;;;10.75;6.70;;;;;;;13.29;69.12;102669.28;5034950;28;20064;-64
2022/05/08 01:37:01;;;;;;;12.27;6.55;;;;;;;13.20;69.14;102667.09;5034881;28;20090;-65
2022/05/08 01:39:26;;;;;;;11.98;6.97;;;;;;;13.26;69.17;102680.31;5035865;28;20467;-63
2022/05/08 01:41:51;;;;;;;12.07;7.07;;;;;;;13.22;69.10;102678.41;5032916;28;20056;-65
2022/05/08 01:44:17;;;;;;;11.43;7.55;;;;;;;13.25;69.47;102685.44;5038999;28;20044;-63
2022/05/08 01:46:42;;;;;;;12.32;7.45;;;;;;;13.29;69.50;102689.94;5033263;28;20033;-64
2022/05/08 01:49:07;;;;;;;12.73;7.45;;;;;;;13.28;69.59;102686.44;5034759;28;20033;-64
2022/05/08 01:51:33;;;;;;;12.27;7.82;;;;;;;13.22;69.77;102683.56;5033550;28;20437;-64
2022/05/08 01:53:58;;;;;;;14.60;7.20;;;;;;;13.22;69.70;102691.31;5035158;28;20107;-64
2022/05/08 01:56:23;;;;;;;11.13;7.28;;;;;;;13.23;70.05;102694.81;5033815;28;20657;-64
2022/05/08 01:58:49;;;;;;;13.15;7.47;;;;;;;13.20;70.15;102692.94;5034090;28;20086;-64
2022/05/08 02:01:15;;;;;;;15.68;8.25;;;;;;;13.28;69.69;102686.44;5036099;28;20119;-64
2022/05/08 02:03:41;;;;;;;15.85;8.18;;;;;;;13.25;69.73;102693.19;5035616;28;20116;-64
2022/05/08 02:06:06;;;;;;;15.18;8.00;;;;;;;13.12;69.67;102696.88;5037298;28;20417;-64
2022/05/08 02:08:32;;;;;;;13.27;8.02;;;;;;;13.09;69.93;102700.16;5037324;28;20065;-64
2022/05/08 02:10:57;;;;;;;13.52;7.63;;;;;;;13.05;69.56;102705.16;5035536;28;20072;-63
2022/05/08 02:13:23;;;;;;;17.50;7.57;;;;;;;12.98;69.80;102705.63;5036138;28;20480;-64
2022/05/08 02:15:49;;;;;;;11.85;8.10;;;;;;;12.97;70.10;102702.19;5033988;28;20037;-63
2022/05/08 02:18:14;;;;;;;12.60;7.38;;;;;;;12.93;69.89;102705.44;5032072;28;20036;-64
2022/05/08 02:20:40;;;;;;;15.02;8.10;;;;;;;12.97;69.78;102703.88;5036478;28;20037;-64
2022/05/08 02:23:06;;;;;;;14.77;7.65;;;;;;;12.91;70.02;102708.75;5033479;28;20036;-64
2022/05/08 02:25:32;;;;;;;14.35;7.82;;;;;;;12.88;69.83;102707.81;5033808;28;20485;-64
2022/05/08 02:27:57;;;;;;;15.32;7.95;;;;;;;12.87;69.88;102707.72;5033445;28;20029;-63
2022/05/08 02:30:23;;;;;;;15.65;7.60;;;;;;;12.84;69.78;102710.16;5038994;28;20110;-64
2022/05/08 02:32:51;;;;;;;16.80;7.93;;;;;;;12.82;69.73;102707.50;5035120;28;21539;-63
2022/05/08 02:35:17;;;;;;;14.88;8.13;;;;;;;12.80;69.79;102711.72;5034889;28;20090;-63
2022/05/08 02:37:43;;;;;;;17.13;7.82;;;;;;;12.83;69.76;102713.56;5036661;28;20077;-63
2022/05/08 02:40:09;;;;;;;18.40;7.95;;;;;;;12.86;69.16;102712.00;5032382;28;20029;-64
2022/05/08 02:42:36;;;;;;;16.38;8.65;;;;;;;12.80;69.36;102711.72;5032610;28;21862;-63
2022/05/08 02:45:03;;;;;;;14.98;7.53;;;;;;;12.79;69.19;102715.09;5035785;28;20021;-64
2022/05/08 02:47:28;;;;;;;17.38;7.88;;;;;;;12.82;69.61;102716.94;5029257;28;20037;-64
2022/05/08 02:49:54;;;;;;;16.70;8.15;;;;;;;12.82;69.13;102714.38;5032596;28;20043;-63
2022/05/08 02:52:19;;;;;;;15.73;7.72;;;;;;;12.82;69.27;102723.00;5029582;28;20641;-64
2022/05/08 02:54:45;;;;;;;14.20;7.82;;;;;;;12.83;68.98;102723.88;5031692;28;20157;-64
2022/05/08 02:59:54;;;;;;;15.77;6.85;;;;;;;12.77;68.29;102724.47;5038098;28;21289;-64
2022/05/08 03:02:20;;;;;;;14.95;7.13;;;;;;;12.72;68.49;102718.19;5033351;28;20159;-64
2022/05/08 03:04:45;;;;;;;16.77;6.68;;;;;;;12.70;68.13;102719.81;5033950;28;20031;-64
2022/05/08 03:07:11;;;;;;;15.38;7.63;;;;;;;12.70;68.01;102717.25;5033044;28;20055;-63
2022/05/08 03:09:37;;;;;;;16.95;6.97;;;;;;;12.70;68.08;102714.66;5015603;28;20068;-63
2022/05/08 03:12:03;;;;;;;14.75;6.63;;;;;;;12.62;68.00;102713.41;5037318;28;20064;-64
2022/05/08 03:14:28;;;;;;;15.93;6.10;;;;;;;12.59;67.63;102705.50;5034789;28;20043;-63
2022/05/08 03:16:53;;;;;;;14.35;6.63;;;;;;;12.63;67.92;102710.00;5035645;28;20044;-63
2022/05/08 03:19:21;;;;;;;16.63;6.57;;;;;;;12.50;67.64;102710.22;5035557;28;20124;-63
2022/05/08 03:21:50;;;;;;;14.90;6.90;;;;;;;12.57;67.70;102720.03;5034183;28;20067;-63
2022/05/08 03:24:16;;;;;;;15.23;6.45;;;;;;;12.49;67.17;102705.84;5035230;28;20037;-64
2022/05/08 03:26:41;;;;;;;18.27;6.05;;;;;;;12.48;66.36;102716.97;5034335;28;20048;-63
2022/05/08 03:29:07;;;;;;;16.27;5.55;;;;;;;12.47;66.01;102720.38;5033871;28;20040;-63
2022/05/08 03:31:33;;;;;;;20.08;5.53;;;;;;;12.39;65.46;102719.13;5035249;28;20033;-64
2022/05/08 03:33:58;;;;;;;16.40;4.90;;;;;;;12.25;64.78;102716.69;5032289;28;20033;-63
2022/05/08 03:36:24;;;;;;;14.98;4.68;;;;;;;12.27;64.88;102724.53;5035572;28;20029;-64
2022/05/08 03:38:49;;;;;;;15.25;5.28;;;;;;;12.18;64.77;102721.47;5034479;28;20035;-63
2022/05/08 03:41:15;;;;;;;20.17;5.03;;;;;;;12.14;65.02;102730.78;5033459;28;20099;-63
2022/05/08 03:43:42;;;;;;;19.92;4.80;;;;;;;12.17;64.78;102727.44;5031100;28;20507;-64
2022/05/08 03:46:08;;;;;;;20.00;5.10;;;;;;;12.18;65.03;102724.94;5033381;28;20036;-62
2022/05/08 03:48:35;;;;;;;19.98;5.20;;;;;;;12.16;64.81;102725.69;5032330;28;20472;-63
2022/05/08 03:51:01;;;;;;;18.25;5.63;;;;;;;12.20;64.99;102725.94;5033302;28;20037;-62
2022/05/08 03:53:26;;;;;;;15.38;5.07;;;;;;;12.20;65.03;102727.63;5032750;28;20131;-64
2022/05/08 03:55:52;;;;;;;19.50;5.18;;;;;;;12.18;65.13;102722.34;5035499;28;20041;-63
2022/05/08 03:58:17;;;;;;;18.17;4.85;;;;;;;12.24;65.53;102726.94;5035077;28;20032;-64
2022/05/08 04:00:43;;;;;;;22.92;5.30;;;;;;;12.21;65.10;102731.97;5030869;28;20480;-63
2022/05/08 04:03:08;;;;;;;21.23;5.25;;;;;;;12.19;65.54;102731.88;5032393;28;20167;-63
2022/05/08 04:05:33;;;;;;;20.65;5.25;;;;;;;12.17;65.48;102736.06;5033289;28;20044;-64
2022/05/08 04:07:59;;;;;;;20.60;6.13;;;;;;;12.14;65.14;102732.47;5028850;28;20053;-63
2022/05/08 04:10:24;;;;;;;19.95;5.20;;;;;;;12.09;65.42;102742.53;5035374;28;20606;-64
2022/05/08 04:12:49;;;;;;;20.70;5.13;;;;;;;12.10;65.61;102740.84;5032870;28;20029;-63
2022/05/08 04:17:59;;;;;;;17.42;5.07;;;;;;;12.07;66.01;102745.03;5030759;28;20048;-63
2022/05/08 04:20:24;;;;;;;22.65;4.80;;;;;;;12.03;65.77;102749.97;5032259;28;20025;-64
2022/05/08 04:25:34;;;;;;;19.15;5.25;;;;;;;11.95;65.97;102738.34;5034633;28;20116;-64
2022/05/08 04:27:59;;;;;;;18.55;4.20;;;;;;;11.99;66.04;102748.00;5031325;28;20048;-63
2022/05/08 04:30:24;;;;;;;20.20;4.80;;;;;;;11.92;65.96;102741.66;5033076;28;21067;-63
2022/05/08 04:32:50;;;;;;;22.15;4.55;;;;;;;11.93;66.17;102739.97;5033054;28;20032;-64
2022/05/08 04:35:15;;;;;;;19.67;5.10;;;;;;;11.91;65.98;102741.59;5036249;28;20029;-63
2022/05/08 04:37:41;;;;;;;24.25;4.50;;;;;;;11.91;66.57;102749.31;5030399;28;20033;-63
2022/05/08 04:40:07;;;;;;;19.20;4.40;;;;;;;11.94;66.26;102747.75;5032565;28;20037;-63
2022/05/08 04:42:33;;;;;;;18.88;4.70;;;;;;;11.90;66.54;102750.13;5034116;28;20051;-63
2022/05/08 04:44:59;;;;;;;21.73;4.38;;;;;;;11.89;66.50;102749.25;5035470;28;20021;-63
2022/05/08 04:47:25;;;;;;;19.98;4.38;;;;;;;11.78;66.71;102751.22;5033521;28;20056;-63
2022/05/08 04:49:51;;;;;;;22.35;4.75;;;;;;;11.74;66.60;102750.97;5035941;28;20032;-63
2022/05/08 04:52:17;;;;;;;25.15;4.85;;;;;;;11.73;66.61;102750.06;5036250;28;20051;-63
2022/05/08 04:54:42;;;;;;;23.98;5.10;;;;;;;11.70;67.09;102747.31;5030334;28;20471;-63
2022/05/08 04:57:07;;;;;;;20.98;5.13;;;;;;;11.69;67.10;102760.13;5031770;28;20123;-63
2022/05/08 04:59:33;;;;;;;16.92;4.28;;;;;;;11.69;67.22;102762.72;5030585;28;20676;-63
2022/05/08 05:01:58;;;;;;;19.42;4.38;;;;;;;11.69;67.05;102763.59;5033068;28;20029;-64
2022/05/08 05:04:23;;;;;;;19.08;4.38;;;;;;;11.67;66.92;102770.38;5033543;28;20419;-63
2022/05/08 05:06:49;;;;;;;19.40;4.32;;;;;;;11.68;66.65;102766.09;5036715;28;20032;-63
2022/05/08 05:09:14;;;;;;;20.75;4.82;;;;;;;11.65;66.10;102774.56;5038256;28;20072;-63
2022/05/08 05:11:40;;;;;;;23.23;4.93;;;;;;;11.65;66.28;102778.78;5038687;28;20108;-64
2022/05/08 05:14:05;;;;;;;24.70;4.93;;;;;;;11.65;66.25;102782.28;5039080;28;20044;-63
2022/05/08 05:16:30;;;;;;;23.17;4.60;;;;;;;11.59;65.97;102781.03;5037430;28;20086;-63
2022/05/08 05:18:56;;;;;;;28.70;5.15;;;;;;;11.54;65.86;102783.38;5034335;28;20060;-63
2022/05/08 05:21:21;;;;;;;23.77;4.55;;;;;;;11.55;65.66;102787.72;5036622;28;20387;-64
2022/05/08 05:23:47;;;;;;;22.48;4.25;;;;;;;11.48;65.92;102785.63;5036126;28;21725;-63
2022/05/08 05:26:12;;;;;;;20.27;4.63;;;;;;;11.52;65.98;102790.13;5035892;28;20026;-64
2022/05/08 05:28:37;;;;;;;19.48;4.80;;;;;;;11.49;65.98;102795.13;5038059;28;20086;-63
2022/05/08 05:31:03;;;;;;;22.15;4.07;;;;;;;11.54;65.34;102796.28;5036255;28;20040;-63
2022/05/08 05:33:28;;;;;;;21.98;5.00;;;;;;;11.47;65.32;102787.31;5036982;28;20124;-63
2022/05/08 05:35:53;;;;;;;19.65;3.88;;;;;;;11.51;65.64;102802.13;5039868;28;20504;-63
2022/05/08 05:38:19;;;;;;;22.75;4.22;;;;;;;11.57;65.44;102801.56;5036773;28;20042;-64
2022/05/08 05:40:44;;;;;;;26.63;4.32;;;;;;;11.60;65.15;102809.50;5035065;28;20029;-63
2022/05/08 05:43:10;;;;;;;22.55;4.35;;;;;;;11.53;64.80;102812.53;5038310;28;20033;-63
2022/05/08 05:45:35;;;;;;;13.23;3.15;;;;;;;11.60;65.22;102818.91;5033252;28;20147;-64
2022/05/08 05:48:01;;;;;;;22.92;4.25;;;;;;;11.60;65.11;102818.91;5032859;28;20124;-63
2022/05/08 05:50:28;;;;;;;20.30;4.22;;;;;;;11.60;65.03;102819.78;5037400;28;20049;-64
2022/05/08 05:52:53;;;;;;;25.70;4.45;;;;;;;11.57;64.53;102823.88;5035565;28;20070;-64
2022/05/08 05:55:20;;;;;;;27.95;4.20;;;;;;;11.50;64.19;102832.97;5035397;28;20037;-64
2022/05/08 05:57:46;;;;;;;24.00;4.25;;;;;;;11.49;64.31;102831.19;5034014;28;20033;-63
2022/05/08 06:00:14;;;;;;;19.60;3.63;;;;;;;11.48;63.96;102834.59;5034542;28;20112;-63
2022/05/08 06:02:42;;;;;;;23.83;4.43;;;;;;;11.44;63.96;102838.66;5034126;28;20033;-64
2022/05/08 06:05:08;;;;;;;22.73;4.30;;;;;;;11.50;64.33;102840.69;5033983;28;20033;-63
2022/05/08 06:07:34;;;;;;;20.98;3.88;;;;;;;11.55;63.79;102839.25;5033557;28;20052;-63
2022/05/08 06:10:01;;;;;;;19.67;3.90;;;;;;;11.56;64.13;102848.75;5033313;28;20679;-64
2022/05/08 06:12:26;;;;;;;24.55;4.60;;;;;;;11.57;63.94;102847.06;5031366;28;20067;-62
2022/05/08 06:14:51;;;;;;;21.25;3.83;;;;;;;11.59;64.38;102848.94;5027059;28;20839;-62
2022/05/08 06:17:17;;;;;;;20.00;4.03;;;;;;;11.63;63.36;102850.88;5027958;28;20044;-62
2022/05/08 06:19:42;;;;;;;16.10;4.03;;;;;;;11.59;63.54;102853.19;5027026;28;20484;-62
2022/05/08 06:22:08;;;;;;;20.20;3.38;;;;;;;11.61;63.24;102846.44;5028042;28;20032;-63
2022/05/08 06:24:38;;;;;;;18.55;3.92;;;;;;;11.71;63.31;102853.88;5031511;28;20760;-63
2022/05/08 06:27:03;;;;;;;21.38;3.97;;;;;;;11.73;62.76;102850.59;5031677;28;20049;-62
2022/05/08 06:29:29;;;;;;;20.00;3.40;;;;;;;11.72;62.91;102851.41;5031924;28;20035;-63
2022/05/08 06:31:54;;;;;;;23.33;3.70;;;;;;;11.76;62.37;102858.47;5027325;28;20036;-63
2022/05/08 06:34:19;;;;;;;25.45;4.45;;;;;;;11.76;62.78;102863.63;5033284;28;22899;-63
2022/05/08 06:36:45;;;;;;;19.45;3.83;;;;;;;11.86;62.64;102861.59;5030914;28;20044;-62
2022/05/08 06:39:10;;;;;;;22.25;4.25;;;;;;;11.86;62.62;102859.91;5031760;28;20020;-63
2022/05/08 06:41:39;;;;;;;18.67;4.07;;;;;;;11.77;62.51;102862.84;5029789;28;20059;-63
2022/05/08 06:44:05;;;;;;;17.17;3.77;;;;;;;11.75;62.79;102864.44;5033141;28;20084;-62
2022/05/08 06:46:35;;;;;;;22.75;3.75;;;;;;;11.75;63.16;102861.84;5032479;28;20387;-62
2022/05/08 06:49:02;;;;;;;21.90;3.83;;;;;;;11.78;62.93;102858.59;5031094;28;20032;-62
2022/05/08 06:51:28;;;;;;;18.10;3.70;;;;;;;11.75;62.85;102867.00;5031340;28;20098;-62
2022/05/08 06:53:53;;;;;;;22.35;3.88;;;;;;;11.79;62.56;102866.38;5029223;28;20036;-62
2022/05/08 06:56:18;;;;;;;22.10;4.18;;;;;;;11.88;62.45;102865.13;5031824;28;20047;-63
2022/05/08 07:01:42;;;;;;;21.92;3.80;;;;;;;12.07;62.65;102870.47;5031877;28;20047;-63
2022/05/08 07:04:10;;;;;;;22.10;3.95;;;;;;;12.10;61.77;102867.19;5031764;28;20045;-63
2022/05/08 07:06:40;;;;;;;22.13;4.20;;;;;;;12.16;62.51;102864.94;5030842;28;20032;-63
2022/05/08 07:09:09;;;;;;;20.77;4.28;;;;;;;12.23;62.31;102873.09;5037946;28;20076;-63
2022/05/08 07:11:37;;;;;;;24.30;5.25;;;;;;;12.22;62.58;102871.31;5035214;28;20037;-63
2022/05/08 07:14:03;;;;;;;17.45;4.13;;;;;;;12.33;63.07;102877.94;5030325;28;20119;-63
2022/05/08 07:16:28;;;;;;;19.13;3.75;;;;;;;12.46;63.12;102886.31;5031464;28;20040;-62
2022/05/08 07:18:54;;;;;;;23.42;4.70;;;;;;;12.51;62.10;102883.19;5033911;28;20152;-63
2022/05/08 07:21:20;;;;;;;23.42;4.45;;;;;;;12.65;60.87;102876.13;5036159;28;20136;-63
2022/05/08 07:23:46;;;;;;;20.58;4.13;;;;;;;12.72;60.42;102883.38;5032889;28;20099;-63
2022/05/08 07:26:12;;;;;;;21.20;4.00;;;;;;;12.74;59.70;102883.47;5033749;28;20057;-63
2022/05/08 07:28:37;;;;;;;22.65;4.13;;;;;;;12.72;59.71;102879.91;5034173;28;20187;-63
2022/05/08 07:31:03;;;;;;;19.00;3.78;;;;;;;12.67;59.51;102886.53;5036213;28;20045;-63
2022/05/08 07:33:34;;;;;;;20.40;4.10;;;;;;;12.72;60.07;102887.66;5032167;28;20029;-63
2022/05/08 07:36:15;;;;;;;20.23;4.28;;;;;;;12.95;59.59;102881.09;5031079;28;20033;-63
2022/05/08 07:38:45;;;;;;;15.65;4.13;;;;;;;13.11;58.58;102875.91;5032462;28;20036;-63
2022/05/08 07:41:11;;;;;;;23.73;4.70;;;;;;;13.31;58.43;102882.97;5032227;28;20514;-62
2022/05/08 07:43:37;;;;;;;19.88;4.13;;;;;;;13.43;57.71;102881.78;5035724;28;20021;-62
2022/05/08 07:46:03;;;;;;;15.95;3.75;;;;;;;13.57;57.07;102883.31;5036274;28;20033;-62
2022/05/08 07:48:29;;;;;;;20.38;4.03;;;;;;;13.68;57.48;102892.47;5039884;28;20024;-61
2022/05/08 07:50:55;;;;;;;22.73;4.10;;;;;;;13.69;56.11;102889.06;5037255;28;20348;-62
2022/05/08 07:53:21;;;;;;;19.75;4.07;;;;;;;13.81;56.03;102886.19;5036252;28;20029;-62
2022/05/08 07:55:52;;;;;;;18.60;4.78;;;;;;;13.84;55.13;102895.00;5040415;28;20091;-62
2022/05/08 07:58:21;;;;;;;17.67;4.00;;;;;;;13.93;54.45;102881.59;5036146;28;20075;-61
2022/05/08 08:00:49;;;;;;;17.40;3.83;;;;;;;14.01;54.34;102892.28;5038382;28;20103;-61
2022/05/08 08:03:16;;;;;;;17.35;3.88;;;;;;;14.01;53.61;102892.28;5031244;28;20164;-62
2022/05/08 08:05:41;;;;;;;20.45;4.15;;;;;;;14.02;52.96;102900.13;5037392;28;20025;-62
2022/05/08 08:08:06;;;;;;;18.63;3.58;;;;;;;14.03;53.09;102903.59;5032766;28;20094;-62
2022/05/08 08:10:32;;;;;;;18.40;4.05;;;;;;;14.10;52.95;102898.78;5031873;28;20048;-61
2022/05/08 08:12:58;;;;;;;19.92;3.88;;;;;;;14.20;53.51;102900.97;5037823;28;20506;-62
2022/05/08 08:15:23;;;;;;;20.17;3.80;;;;;;;14.37;53.36;102901.72;5034939;28;20037;-62
2022/05/08 08:17:49;;;;;;;14.77;3.92;;;;;;;14.54;54.17;102899.03;5032739;28;20163;-62
2022/05/08 08:20:14;;;;;;;16.75;4.18;;;;;;;14.60;53.32;102899.31;5034896;28;20117;-61
2022/05/08 08:22:40;;;;;;;17.98;3.95;;;;;;;14.82;53.14;102901.13;5033459;28;20916;-61
2022/05/08 08:25:06;;;;;;;18.75;4.40;;;;;;;14.86;52.07;102901.31;5035517;28;20027;-62
2022/05/08 08:27:32;;;;;;;15.25;3.83;;;;;;;14.89;50.93;102901.44;5033425;28;20079;-62
2022/05/08 08:29:57;;;;;;;14.25;3.58;;;;;;;14.84;50.92;102904.66;5033437;28;20467;-62
2022/05/08 08:32:22;;;;;;;15.55;3.67;;;;;;;15.03;51.33;102904.63;5034357;28;20363;-62
2022/05/08 08:34:49;;;;;;;18.35;3.88;;;;;;;15.15;51.61;102904.25;5031498;28;20124;-62
2022/05/08 08:37:14;;;;;;;17.38;3.40;;;;;;;15.17;48.96;102897.44;5034635;28;20031;-62
2022/05/08 08:39:40;;;;;;;17.30;3.63;;;;;;;15.32;49.27;102892.00;5033240;28;20040;-62
2022/05/08 08:42:24;;;;;;;15.52;3.22;;;;;;;15.52;49.90;102902.34;5032613;28;21915;-62
2022/05/08 08:47:52;;;;;;;16.35;3.80;;;;;;;15.78;49.51;102900.84;5034293;28;20148;-62
2022/05/08 08:50:18;;;;;;;14.00;3.53;;;;;;;15.87;49.01;102897.69;5032775;28;21023;-61
2022/05/08 08:52:45;;;;;;;17.65;3.85;;;;;;;15.94;49.47;102901.41;5037603;28;20029;-61
2022/05/08 08:55:11;;;;;;;17.05;3.42;;;;;;;16.06;49.52;102899.28;5035898;28;20045;-61
2022/05/08 08:57:37;;;;;;;15.00;3.50;;;;;;;16.18;49.88;102901.44;5035776;28;20086;-61
2022/05/08 09:00:07;;;;;;;15.75;3.13;;;;;;;16.39;49.11;102909.16;5031398;28;20143;-62
2022/05/08 09:02:34;;;;;;;16.90;3.53;;;;;;;16.37;47.34;102903.91;5033102;28;20116;-62
2022/05/08 09:05:04;;;;;;;17.73;3.58;;;;;;;16.35;46.82;102900.38;5033287;28;20537;-61
2022/05/08 09:07:43;;;;;;;15.68;3.67;;;;;;;16.43;46.81;102898.03;5034540;28;22387;-61
2022/05/08 09:10:23;;;;;;;14.00;3.45;;;;;;;16.45;47.82;102892.09;5037094;28;20061;-61
2022/05/08 09:12:51;;;;;;;14.63;3.08;;;;;;;16.48;47.46;102897.38;5032342;28;20025;-61
2022/05/08 09:15:28;;;;;;;15.32;3.60;;;;;;;16.50;45.80;102900.94;5033479;28;20025;-62
2022/05/08 09:17:57;;;;;;;12.85;2.92;;;;;;;16.66;46.41;102898.88;5036064;28;20464;-60
2022/05/08 09:20:30;;;;;;;13.55;3.30;;;;;;;16.61;46.49;102898.72;5030152;28;20118;-61
2022/05/08 09:22:59;;;;;;;13.35;3.10;;;;;;;16.66;45.83;102896.28;5037070;28;20032;-62
2022/05/08 09:25:51;;;;;;;16.70;3.17;;;;;;;16.73;46.08;102893.97;5035600;28;20022;-60
2022/05/08 09:28:19;;;;;;;14.23;3.33;;;;;;;16.78;44.80;102894.16;5026938;28;20499;-59
2022/05/08 09:31:02;;;;;;;18.10;3.47;;;;;;;16.80;45.49;102895.06;5035024;28;20033;-58
2022/05/08 09:33:40;;;;;;;16.23;3.63;;;;;;;16.85;45.16;102898.72;5034455;28;20052;-59
2022/05/08 09:36:11;;;;;;;14.98;3.40;;;;;;;16.82;44.58;102889.13;5032123;28;20152;-60
2022/05/08 09:38:43;;;;;;;14.18;3.28;;;;;;;16.86;45.03;102880.56;5036304;28;20029;-59
2022/05/08 09:41:09;;;;;;;13.13;3.63;;;;;;;16.89;44.53;102885.91;5035969;28;20025;-58
2022/05/08 09:43:34;;;;;;;14.65;3.20;;;;;;;16.74;44.17;102887.94;5031972;28;20095;-59
2022/05/08 09:46:01;;;;;;;8.75;2.80;;;;;;;16.84;44.08;102876.16;5036373;28;20036;-59
2022/05/08 09:48:28;;;;;;;13.38;2.97;;;;;;;16.87;44.02;102881.50;5036856;28;20029;-59
2022/05/08 09:51:03;;;;;;;9.32;3.17;;;;;;;16.96;43.59;102880.91;5036743;28;20029;-58
2022/05/08 09:53:31;;;;;;;14.98;3.25;;;;;;;17.03;42.91;102891.56;5042357;28;20032;-58
2022/05/08 09:55:58;;;;;;;11.50;2.92;;;;;;;17.15;43.10;102883.28;5041274;28;20033;-58
2022/05/08 09:58:24;;;;;;;11.07;2.80;;;;;;;17.03;43.11;102886.34;5038637;28;20037;-57
2022/05/08 10:00:57;;;;;;;10.60;2.78;;;;;;;17.10;42.65;102885.72;5039075;28;20029;-58
2022/05/08 10:03:23;;;;;;;13.15;2.97;;;;;;;17.18;42.26;102882.50;5039735;28;20025;-57
2022/05/08 10:05:50;;;;;;;12.85;2.80;;;;;;;17.37;42.32;102884.88;5037127;28;20044;-60
2022/05/08 10:08:18;;;;;;;11.50;3.05;;;;;;;17.32;41.74;102883.84;5037171;28;20075;-57
2022/05/08 10:13:56;;;;;;;14.90;3.03;;;;;;;17.62;41.85;102881.31;5042571;28;20103;-60
2022/05/08 10:16:44;;;;;;;12.35;2.92;;;;;;;17.70;42.22;102875.50;5037035;28;20017;-58
2022/05/08 10:19:27;;;;;;;11.85;3.00;;;;;;;17.87;42.44;102875.19;5037676;28;20040;-59
2022/05/08 10:21:53;;;;;;;12.45;2.95;;;;;;;18.11;41.07;102862.00;5034899;28;20060;-60
2022/05/08 10:24:40;;;;;;;11.82;3.05;;;;;;;18.44;41.93;102865.56;5039282;28;20031;-59
2022/05/08 10:27:16;;;;;;;10.70;2.72;;;;;;;18.48;41.19;102874.34;5036436;28;20079;-61
2022/05/08 10:29:43;;;;;;;10.50;2.90;;;;;;;18.45;40.47;102861.25;5036670;28;20032;-60
2022/05/08 10:32:10;;;;;;;9.60;2.78;;;;;;;18.44;40.66;102851.63;5040450;28;20032;-59
2022/05/08 10:34:39;;;;;;;12.57;3.05;;;;;;;18.50;41.20;102851.81;5036873;28;20079;-59
2022/05/08 10:37:13;;;;;;;;;;;;;;;18.73;41.21;102850.72;5036668;28;20056;-63
2022/05/08 10:39:43;;;;;;;13.10;3.35;;;;;;;18.83;40.60;102841.44;5038219;28;19966;-61
2022/05/08 10:42:33;;;;;;;15.32;2.95;;;;;;;19.06;41.56;102844.63;5035946;28;20052;-61
2022/05/08 10:45:00;;;;;;;10.85;2.70;;;;;;;19.24;40.53;102841.56;5036510;28;20025;-63
2022/05/08 10:47:37;;;;;;;11.93;2.42;;;;;;;19.41;39.70;102844.53;5035721;28;20747;-61
2022/05/08 10:50:06;;;;;;;8.27;2.30;;;;;;;19.53;39.57;102837.88;5032207;28;20036;-61
2022/05/08 10:52:33;;;;;;;13.75;2.97;;;;;;;19.59;38.82;102831.94;5037578;28;20661;-60
2022/05/08 10:55:04;;;;;;;11.60;2.88;;;;;;;19.74;39.28;102837.53;5039919;28;20033;-59
2022/05/08 10:57:37;;;;;;;11.98;2.70;;;;;;;19.72;38.25;102844.44;5036397;28;20025;-61
2022/05/08 11:00:08;;;;;;;11.20;2.78;;;;;;;19.70;37.78;102850.47;5038694;28;20108;-61
2022/05/08 11:02:54;;;;;;;10.27;3.40;;;;;;;19.74;38.49;102841.88;5037810;28;20059;-59
2022/05/08 11:05:22;;;;;;;10.23;2.65;;;;;;;19.82;38.40;102843.78;5034880;28;20652;-58
2022/05/08 11:07:52;;;;;;;8.57;2.63;;;;;;;19.86;38.06;102842.13;5036185;28;20223;-59
2022/05/08 11:10:22;;;;;;;9.18;2.95;;;;;;;19.90;37.30;102843.03;5038841;28;20068;-59
2022/05/08 11:13:00;;;;;;;16.25;3.40;;;;;;;19.91;37.44;102847.44;5039020;28;20434;-59
2022/05/08 11:15:27;;;;;;;17.70;3.45;;;;;;;19.81;37.04;102846.34;5036945;28;20155;-60
2022/05/08 11:18:24;;;;;;;11.63;3.13;;;;;;;20.10;37.87;102839.13;5035579;28;20025;-59
2022/05/08 11:20:57;;;;;;;8.82;2.60;;;;;;;20.01;37.09;102838.94;5033593;28;20064;-60
2022/05/08 11:23:27;;;;;;;12.63;3.25;;;;;;;20.17;36.53;102837.53;5038982;28;20048;-59
2022/05/08 11:26:09;;;;;;;9.68;2.95;;;;;;;20.27;36.06;102839.47;5036007;28;20029;-60
2022/05/08 11:28:36;;;;;;;9.43;2.40;;;;;;;20.11;36.24;102838.28;5037749;28;20033;-58
2022/05/08 11:31:16;;;;;;;9.32;2.30;;;;;;;20.20;36.29;102837.56;5036120;28;20515;-59
2022/05/08 11:36:28;;;;;;;9.85;2.50;;;;;;;20.31;36.49;102828.22;5037719;28;20490;-59
2022/05/08 11:38:59;;;;;;;12.07;2.70;;;;;;;20.16;36.27;102826.19;5036685;28;20128;-59
2022/05/08 11:41:31;;;;;;;11.32;2.53;;;;;;;20.03;36.48;102822.47;5039275;28;20047;-59